Time;durP1;ratioP1;P1;durP2;ratioP2;P2;SDS_P1;SDS_P2;PMS_P1;PMS_P2;Temp;Humidity;BMP_temperature;BMP_pressure;BME280_temperature;BME280_humidity;BME280_pressure;Samples;Min_cycle;Max_cycle;Signal;HPM_P1;HPM_P2
2022/03/02 00:01:04;;;;;;;7.63;4.60;;;;;;;19.67;37.46;97794.16;10472980;28;20553;-57
2022/03/02 00:06:24;;;;;;;7.80;4.13;;;;;;;19.66;37.31;97805.28;10472507;28;20056;-58
2022/03/02 00:11:43;;;;;;;5.47;4.30;;;;;;;19.63;37.13;97803.19;10491799;28;20040;-58
2022/03/02 00:17:04;;;;;;;5.97;4.10;;;;;;;19.62;37.29;97806.97;10478429;28;20079;-58
2022/03/02 00:22:23;;;;;;;4.97;3.75;;;;;;;19.61;37.18;97805.41;10487658;28;20052;-58
2022/03/02 00:27:42;;;;;;;5.20;3.78;;;;;;;19.59;37.14;97797.56;10462355;28;20048;-58
2022/03/02 00:33:02;;;;;;;4.88;3.85;;;;;;;19.56;37.11;97803.56;10467757;28;20036;-58
2022/03/02 00:38:21;;;;;;;5.45;4.00;;;;;;;19.55;36.85;97801.97;10466262;28;20077;-58
2022/03/02 00:43:41;;;;;;;4.65;4.03;;;;;;;19.52;36.88;97798.00;10494116;28;20048;-58
2022/03/02 00:49:03;;;;;;;5.85;3.75;;;;;;;19.50;36.83;97788.56;10495401;28;20127;-58
2022/03/02 00:54:23;;;;;;;4.60;3.50;;;;;;;19.49;36.99;97776.16;10487350;28;20056;-57
2022/03/02 00:59:42;;;;;;;4.78;3.83;;;;;;;19.45;36.83;97781.34;10485944;28;20479;-58
2022/03/02 01:05:02;;;;;;;5.63;3.97;;;;;;;19.45;36.82;97770.53;10484259;28;20538;-58
2022/03/02 01:10:22;;;;;;;4.63;3.70;;;;;;;19.42;36.79;97765.72;10481735;28;20068;-58
2022/03/02 01:15:41;;;;;;;4.82;3.85;;;;;;;19.42;36.73;97764.94;10485578;28;20135;-58
2022/03/02 01:21:01;;;;;;;4.72;3.65;;;;;;;19.41;36.73;97771.47;10483933;28;20045;-58
2022/03/02 01:26:21;;;;;;;4.80;3.58;;;;;;;19.38;36.86;97759.31;10510952;28;20052;-58
2022/03/02 01:31:41;;;;;;;4.90;3.90;;;;;;;19.36;36.64;97751.50;10486118;28;20052;-58
2022/03/02 01:37:00;;;;;;;5.13;3.70;;;;;;;19.34;36.63;97737.50;10463431;28;20044;-58
2022/03/02 01:42:20;;;;;;;4.22;3.10;;;;;;;19.34;36.64;97736.72;10511195;28;20497;-58
2022/03/02 01:47:39;;;;;;;5.40;3.53;;;;;;;19.32;36.52;97725.41;10525949;28;20541;-58
2022/03/02 01:52:59;;;;;;;4.75;3.53;;;;;;;19.31;36.42;97729.22;10530370;28;20036;-58
2022/03/02 01:58:18;;;;;;;3.97;3.38;;;;;;;19.28;36.54;97717.09;10522455;28;20496;-58
2022/03/02 02:03:38;;;;;;;4.97;3.60;;;;;;;19.27;36.43;97714.72;10532580;28;20044;-58
2022/03/02 02:08:59;;;;;;;4.32;3.47;;;;;;;19.25;36.49;97709.59;10519246;28;20040;-58
2022/03/02 02:14:19;;;;;;;4.70;3.38;;;;;;;19.24;36.37;97715.31;10534181;28;20075;-58
2022/03/02 02:19:38;;;;;;;4.55;3.80;;;;;;;19.22;36.40;97712.09;10516923;28;20044;-58
2022/03/02 02:24:57;;;;;;;4.32;3.85;;;;;;;19.19;36.38;97710.81;10518505;28;20094;-58
2022/03/02 02:30:17;;;;;;;3.80;3.35;;;;;;;19.19;36.54;97704.59;10531833;28;20060;-58
2022/03/02 02:35:36;;;;;;;4.88;3.58;;;;;;;19.15;36.24;97697.09;10514702;28;20047;-58
2022/03/02 02:40:55;;;;;;;4.55;3.50;;;;;;;19.15;36.41;97696.28;10518929;28;20058;-58
2022/03/02 02:46:15;;;;;;;4.00;3.40;;;;;;;19.12;36.25;97691.47;10520509;28;20039;-58
2022/03/02 02:51:34;;;;;;;4.93;3.40;;;;;;;19.11;36.25;97695.28;10521768;28;20036;-58
2022/03/02 02:56:54;;;;;;;4.35;3.58;;;;;;;19.09;36.28;97692.91;10533236;28;20522;-58
2022/03/02 03:02:13;;;;;;;3.97;3.20;;;;;;;19.07;36.10;97684.28;10532441;28;20097;-58
2022/03/02 03:07:34;;;;;;;4.63;3.20;;;;;;;19.06;36.22;97679.97;10514666;28;20094;-58
2022/03/02 03:12:54;;;;;;;4.40;3.40;;;;;;;19.06;36.09;97676.47;10520758;28;20045;-58
2022/03/02 03:18:13;;;;;;;4.10;3.42;;;;;;;19.03;36.28;97668.97;10526916;28;20462;-60
2022/03/02 03:23:32;;;;;;;4.78;3.50;;;;;;;19.02;36.17;97662.78;10539518;28;20047;-58
2022/03/02 03:28:52;;;;;;;4.22;3.40;;;;;;;19.00;36.12;97656.88;10540890;28;20572;-58
2022/03/02 03:34:11;;;;;;;3.97;3.35;;;;;;;18.98;36.08;97648.28;10525324;28;20059;-58
2022/03/02 03:39:31;;;;;;;3.67;3.25;;;;;;;18.97;35.95;97641.25;10528537;28;20059;-58
2022/03/02 03:44:50;;;;;;;4.15;3.38;;;;;;;18.96;36.08;97645.06;10532630;28;20075;-58
2022/03/02 03:50:10;;;;;;;4.15;3.60;;;;;;;18.94;35.98;97645.38;10536128;28;20397;-58
2022/03/02 03:55:29;;;;;;;3.95;3.50;;;;;;;18.92;35.87;97641.38;10534845;28;20058;-58
2022/03/02 04:00:49;;;;;;;4.72;3.63;;;;;;;18.91;35.86;97653.25;10517560;28;20055;-58
2022/03/02 04:06:08;;;;;;;3.90;3.40;;;;;;;18.89;36.02;97640.03;10522141;28;20047;-58
2022/03/02 04:11:27;;;;;;;3.75;3.33;;;;;;;18.87;35.82;97627.97;10526082;28;20405;-58
2022/03/02 04:16:46;;;;;;;4.82;3.70;;;;;;;18.86;36.04;97623.69;10526236;28;20049;-58
2022/03/02 04:22:06;;;;;;;4.13;3.58;;;;;;;18.85;35.90;97628.25;10523302;28;20049;-58
2022/03/02 04:27:26;;;;;;;4.03;3.55;;;;;;;18.82;35.84;97628.03;10525311;28;20048;-58
2022/03/02 04:32:45;;;;;;;3.75;3.38;;;;;;;18.80;35.91;97614.03;10523403;28;20112;-58
2022/03/02 04:38:05;;;;;;;4.82;3.58;;;;;;;18.77;35.92;97600.00;10521399;28;20052;-58
2022/03/02 04:43:25;;;;;;;4.00;3.42;;;;;;;18.78;35.84;97600.84;10533223;28;20411;-58
2022/03/02 04:48:45;;;;;;;3.95;3.50;;;;;;;18.75;35.79;97596.81;10519077;28;20064;-58
2022/03/02 04:54:05;;;;;;;4.93;3.80;;;;;;;18.74;35.82;97594.44;10529166;28;20048;-58
2022/03/02 04:59:25;;;;;;;3.85;3.22;;;;;;;18.74;35.87;97595.22;10519187;28;20040;-58
2022/03/02 05:04:45;;;;;;;4.55;3.70;;;;;;;18.74;35.80;97600.63;10533610;28;20055;-58
2022/03/02 05:10:06;;;;;;;4.07;3.47;;;;;;;18.75;35.92;97601.44;10483643;28;20060;-58
2022/03/02 05:15:26;;;;;;;3.80;3.40;;;;;;;18.75;35.88;97602.22;10516961;28;20403;-58
2022/03/02 05:20:45;;;;;;;4.13;3.72;;;;;;;18.77;36.11;97599.22;10520080;28;20507;-57
2022/03/02 05:26:05;;;;;;;5.05;3.50;;;;;;;18.75;36.45;97596.81;10532831;28;20048;-58
2022/03/02 05:31:24;;;;;;;5.20;3.67;;;;;;;18.76;36.46;97593.03;10524944;28;20540;-58
2022/03/02 05:36:44;;;;;;;4.72;3.67;;;;;;;18.75;36.50;97583.31;10503681;28;20071;-58
2022/03/02 05:42:04;;;;;;;3.70;3.30;;;;;;;18.77;36.54;97594.63;10514351;28;20052;-58
2022/03/02 05:47:24;;;;;;;4.45;3.67;;;;;;;18.78;36.75;97598.16;10512403;28;20056;-57
2022/03/02 05:52:44;;;;;;;4.55;3.50;;;;;;;18.80;36.82;97587.88;10515165;28;20047;-57
2022/03/02 05:58:03;;;;;;;3.97;3.55;;;;;;;18.81;36.88;97594.84;10517263;28;20521;-57
2022/03/02 06:03:22;;;;;;;5.28;3.63;;;;;;;18.84;37.16;97590.78;10525355;28;20071;-58
2022/03/02 06:08:42;;;;;;;4.43;3.78;;;;;;;18.87;37.25;97592.84;10501656;28;20057;-56
2022/03/02 06:14:02;;;;;;;4.03;3.63;;;;;;;18.89;37.33;97593.34;10533513;28;20048;-57
2022/03/02 06:19:22;;;;;;;9.60;4.13;;;;;;;18.91;37.31;97596.56;10526223;28;20048;-57
2022/03/02 06:24:42;;;;;;;26.50;6.55;;;;;;;18.94;37.56;97598.66;10521453;28;20048;-56
2022/03/02 06:30:01;;;;;;;17.33;6.03;;;;;;;18.97;37.48;97598.06;10509861;28;20040;-56
2022/03/02 06:35:21;;;;;;;13.63;5.80;;;;;;;19.00;37.62;97594.75;10516863;28;20048;-57
2022/03/02 06:40:55;;;;;;;13.27;5.93;;;;;;;19.05;37.55;97594.66;10529179;28;20050;-57
2022/03/02 06:46:31;;;;;;;13.48;5.60;;;;;;;19.09;37.67;97601.06;10531757;28;20068;-57
2022/03/02 06:52:00;;;;;;;14.20;5.65;;;;;;;19.13;37.74;97602.06;10521828;28;20055;-57
2022/03/02 06:57:24;;;;;;;11.80;5.60;;;;;;;19.17;37.61;97604.97;10544888;28;20083;-57
2022/03/02 07:02:53;;;;;;;12.10;5.43;;;;;;;19.19;37.44;97607.34;10535515;28;20052;-56
2022/03/02 07:08:13;;;;;;;;;;;;;;;19.20;37.42;97607.03;10501576;28;20056;-57
2022/03/02 07:13:33;;;;;;;12.02;5.40;;;;;;;19.24;37.34;97596.44;10531549;28;20444;-57
2022/03/02 07:18:53;;;;;;;11.52;5.63;;;;;;;19.25;37.42;97598.03;10523750;28;20412;-57
2022/03/02 07:24:20;;;;;;;12.73;5.85;;;;;;;19.27;37.36;97591.25;10526808;28;20040;-57
2022/03/02 07:29:40;;;;;;;11.43;5.45;;;;;;;19.28;37.25;97592.81;10534852;28;20063;-57
2022/03/02 07:35:01;;;;;;;13.02;5.82;;;;;;;19.30;37.35;97589.81;10497455;28;20418;-57
2022/03/02 07:40:21;;;;;;;12.13;5.60;;;;;;;19.31;37.43;97591.44;10487792;28;20501;-57
2022/03/02 07:45:41;;;;;;;10.95;5.35;;;;;;;19.31;37.46;97586.03;10477588;28;20053;-56
2022/03/02 07:51:01;;;;;;;9.57;5.55;;;;;;;19.33;37.42;97589.22;10476268;28;20060;-57
2022/03/02 07:56:22;;;;;;;12.27;6.32;;;;;;;19.33;37.41;97583.81;10488109;28;20071;-57
2022/03/02 08:01:42;;;;;;;9.13;5.60;;;;;;;19.34;37.51;97574.59;10476279;28;20055;-57
2022/03/02 08:07:02;;;;;;;11.13;5.72;;;;;;;19.35;37.79;97576.22;10509201;28;20044;-57
2022/03/02 08:12:25;;;;;;;12.13;5.57;;;;;;;19.35;37.74;97579.72;10489846;28;20048;-56
2022/03/02 08:17:44;;;;;;;10.05;5.78;;;;;;;19.35;37.75;97574.31;10499665;28;20052;-58
2022/03/02 08:23:05;;;;;;;8.77;5.20;;;;;;;19.37;37.65;97579.41;10493324;28;20063;-57
2022/03/02 08:28:24;;;;;;;8.50;5.20;;;;;;;19.35;37.25;97578.91;10489554;28;20053;-57
2022/03/02 08:33:44;;;;;;;7.45;5.15;;;;;;;19.35;37.35;97579.72;10497900;28;20056;-57
2022/03/02 08:39:06;;;;;;;7.60;5.30;;;;;;;19.35;37.17;97574.31;10503289;28;20094;-57
2022/03/02 08:44:26;;;;;;;8.85;5.50;;;;;;;19.35;37.14;97562.72;10537154;28;20063;-57
2022/03/02 08:49:46;;;;;;;6.65;4.82;;;;;;;19.34;37.02;97561.88;10523058;28;20040;-57
2022/03/02 08:55:09;;;;;;;7.07;5.15;;;;;;;19.35;36.94;97560.00;10520009;28;20498;-57
2022/03/02 09:00:29;;;;;;;9.50;5.25;;;;;;;19.34;36.95;97563.78;10513350;28;20059;-57
2022/03/02 09:05:49;;;;;;;7.95;4.88;;;;;;;19.34;36.96;97561.09;10506606;28;20043;-57
2022/03/02 09:11:09;;;;;;;6.65;4.80;;;;;;;19.34;36.95;97547.59;10519538;28;20635;-57
2022/03/02 09:16:28;;;;;;;6.85;4.80;;;;;;;19.33;37.09;97551.41;10505318;28;20059;-57
2022/03/02 09:21:49;;;;;;;7.68;4.70;;;;;;;19.32;37.08;97539.78;10522762;28;20092;-57
2022/03/02 09:27:09;;;;;;;7.53;5.00;;;;;;;19.32;37.08;97534.38;10508555;28;20055;-57
2022/03/02 09:32:31;;;;;;;6.35;4.32;;;;;;;19.31;37.07;97535.50;10530835;28;20055;-56
2022/03/02 09:37:53;;;;;;;5.97;4.50;;;;;;;19.32;37.08;97533.59;10520615;28;20052;-57
2022/03/02 09:43:19;;;;;;;6.93;4.55;;;;;;;19.33;36.95;97529.78;10513628;28;20059;-57
2022/03/02 09:48:47;;;;;;;6.78;4.40;;;;;;;19.30;37.06;97520.38;10513025;28;20068;-57
2022/03/02 09:54:08;;;;;;;7.55;4.40;;;;;;;19.30;36.95;97525.78;10513821;28;20502;-58
2022/03/02 09:59:34;;;;;;;6.85;4.55;;;;;;;19.29;37.07;97524.19;10519490;28;20051;-58
2022/03/02 10:04:58;;;;;;;6.70;4.22;;;;;;;19.27;36.87;97526.41;10506294;28;20057;-58
2022/03/02 10:10:22;;;;;;;5.95;4.15;;;;;;;19.27;36.95;97523.69;10525708;28;20044;-57
2022/03/02 10:15:43;;;;;;;6.43;4.57;;;;;;;19.28;36.98;97516.38;10513986;28;20036;-57
2022/03/02 10:21:05;;;;;;;6.82;4.15;;;;;;;19.26;36.88;97513.97;10499834;28;20044;-57
2022/03/02 10:26:27;;;;;;;7.95;4.70;;;;;;;19.27;37.11;97518.28;10505314;28;20064;-58
2022/03/02 10:31:53;;;;;;;5.72;3.90;;;;;;;19.25;36.92;97512.41;10518295;28;20169;-57
2022/03/02 10:37:58;;;;;;;6.28;4.30;;;;;;;19.24;36.89;97507.28;10530523;28;20044;-57
2022/03/02 10:43:21;;;;;;;5.82;3.92;;;;;;;19.24;36.81;97496.50;10533786;28;20427;-57
2022/03/02 10:48:54;;;;;;;5.20;4.10;;;;;;;19.24;37.01;97499.19;10527899;28;20054;-57
2022/03/02 10:54:21;;;;;;;6.18;3.88;;;;;;;19.21;36.81;97489.81;10491480;28;20127;-57
2022/03/02 10:59:43;;;;;;;5.32;3.92;;;;;;;19.21;36.99;97486.28;10510394;28;20060;-57
2022/03/02 11:05:04;;;;;;;5.47;3.63;;;;;;;19.20;37.06;97479.31;10510608;28;20048;-57
2022/03/02 11:10:37;;;;;;;5.85;4.32;;;;;;;19.20;37.13;97468.50;10497203;28;20053;-57
2022/03/02 11:15:59;;;;;;;5.85;3.88;;;;;;;19.19;36.96;97456.06;10508917;28;20074;-58
2022/03/02 11:21:29;;;;;;;4.03;3.40;;;;;;;19.19;37.11;97445.28;10478879;28;20059;-57
2022/03/02 11:26:49;;;;;;;5.13;3.90;;;;;;;19.17;37.18;97437.50;10507036;28;20128;-57
2022/03/02 11:32:14;;;;;;;4.63;3.53;;;;;;;19.18;36.97;97439.09;10520785;28;20049;-58
2022/03/02 11:37:34;;;;;;;4.85;3.63;;;;;;;19.16;37.03;97438.59;10502528;28;20062;-57
2022/03/02 11:42:53;;;;;;;5.18;3.78;;;;;;;19.15;37.08;97434.28;10512808;28;20052;-57
2022/03/02 11:48:15;;;;;;;4.75;3.72;;;;;;;19.13;37.20;97429.22;10516408;28;20062;-57
2022/03/02 11:53:39;;;;;;;4.97;3.70;;;;;;;19.13;37.33;97423.81;10522487;28;20051;-57
2022/03/02 11:59:05;;;;;;;4.53;3.63;;;;;;;19.12;37.41;97403.28;10515927;28;20483;-57
2022/03/02 12:04:25;;;;;;;6.45;4.45;;;;;;;19.10;37.31;97405.50;10534164;28;20056;-57
2022/03/02 12:09:44;;;;;;;7.22;3.67;;;;;;;19.11;37.18;97392.78;10507632;28;20052;-57
2022/03/02 12:15:05;;;;;;;7.72;3.58;;;;;;;19.09;37.13;97385.00;10504203;28;20122;-57
2022/03/02 12:20:25;;;;;;;5.80;3.47;;;;;;;19.09;37.31;97382.31;10522050;28;20060;-57
2022/03/02 12:25:47;;;;;;;4.70;3.60;;;;;;;19.08;37.36;97388.03;10518506;28;20396;-57
2022/03/02 12:31:13;;;;;;;4.82;3.40;;;;;;;19.07;37.34;97379.13;10515966;28;20052;-57
2022/03/02 12:36:33;;;;;;;5.25;3.70;;;;;;;19.07;37.26;97375.59;10530786;28;20044;-56
2022/03/02 12:41:53;;;;;;;6.22;3.40;;;;;;;19.06;37.28;97368.63;10514491;28;20060;-57
2022/03/02 12:47:16;;;;;;;5.07;3.65;;;;;;;19.05;37.32;97362.44;10531136;28;20052;-57
2022/03/02 12:52:35;;;;;;;4.75;3.50;;;;;;;19.03;37.37;97359.22;10510223;28;20109;-57
2022/03/02 12:57:57;;;;;;;6.35;3.88;;;;;;;19.03;37.52;97353.81;10521301;28;20100;-56
2022/03/02 13:03:23;;;;;;;4.82;3.55;;;;;;;19.02;37.79;97352.22;10544238;28;20052;-56
2022/03/02 13:09:14;;;;;;;5.35;3.30;;;;;;;18.99;37.92;97346.63;10504534;28;20056;-57
2022/03/02 13:14:36;;;;;;;4.80;3.25;;;;;;;18.98;38.05;97347.75;10527727;28;20048;-57
2022/03/02 13:19:57;;;;;;;9.85;5.97;;;;;;;18.96;34.25;97340.75;10518940;28;20067;-56
2022/03/02 13:25:17;;;;;;;10.32;7.78;;;;;;;18.89;32.16;97336.88;10523780;28;20055;-56
2022/03/02 13:30:37;;;;;;;11.25;7.85;;;;;;;18.80;31.35;97338.72;10514811;28;20067;-56
2022/03/02 13:36:00;;;;;;;10.40;8.52;;;;;;;18.76;31.17;97323.13;10521058;28;20106;-56
2022/03/02 13:41:52;;;;;;;10.57;8.20;;;;;;;18.73;29.41;97329.09;10528856;28;20431;-57
2022/03/02 13:47:12;;;;;;;11.35;8.48;;;;;;;18.73;29.41;97329.09;10524968;28;20052;-56
2022/03/02 13:52:32;;;;;;;14.45;11.02;;;;;;;-146.19;100.00;65364.44;10504867;28;20427;-56
2022/03/02 13:58:22;;;;;;;13.65;11.18;;;;;;;-146.19;100.00;65364.44;10505180;28;20036;-56
2022/03/02 14:03:49;;;;;;;15.80;11.10;;;;;;;18.22;24.20;97314.06;10500727;28;20052;-56
2022/03/02 14:09:11;;;;;;;14.30;11.45;;;;;;;18.06;23.20;97307.41;10519895;28;20549;-55
2022/03/02 14:14:32;;;;;;;13.25;10.75;;;;;;;18.06;23.20;97307.41;10532191;28;20113;-56
2022/03/02 14:19:52;;;;;;;13.43;11.95;;;;;;;17.93;22.70;97301.72;10538350;28;20070;-55
2022/03/02 14:25:13;;;;;;;12.93;11.45;;;;;;;17.90;22.77;97299.63;10527556;28;20040;-56
2022/03/02 14:30:37;;;;;;;14.60;11.73;;;;;;;17.86;22.64;97290.56;10524517;28;20117;-56
2022/03/02 14:35:56;;;;;;;14.52;11.43;;;;;;;17.81;22.34;97287.94;10507066;28;20063;-55
2022/03/02 14:41:36;;;;;;;13.68;11.80;;;;;;;17.75;22.03;97289.13;10516181;28;20383;-56
2022/03/02 14:46:55;;;;;;;13.82;11.48;;;;;;;17.71;22.05;97293.53;10531680;28;20051;-56
2022/03/02 14:52:25;;;;;;;;;;;;;;;17.72;20.89;97289.72;10502306;28;20506;-55
2022/03/02 14:57:44;;;;;;;14.07;11.63;;;;;;;17.75;21.34;97289.13;10513331;28;19920;-56
2022/03/02 15:03:15;;;;;;;14.25;11.70;;;;;;;17.81;21.43;97293.31;10510319;28;20052;-55
2022/03/02 15:08:46;;;;;;;15.05;11.75;;;;;;;17.86;21.19;97287.88;10527737;28;20079;-56
2022/03/02 15:19:57;;;;;;;12.75;11.15;;;;;;;17.89;21.09;97278.38;10515690;28;20118;-55
2022/03/02 15:25:17;;;;;;;12.82;9.20;;;;;;;18.05;23.81;97276.16;10501068;28;20102;-56
2022/03/02 15:30:37;;;;;;;11.23;9.13;;;;;;;18.21;25.01;97268.53;10514216;28;20052;-55
2022/03/02 15:36:09;;;;;;;11.70;9.05;;;;;;;18.31;25.48;97265.63;10533624;28;20039;-56
2022/03/02 15:41:29;;;;;;;9.77;8.30;;;;;;;18.41;26.09;97261.88;10521287;28;20060;-56
2022/03/02 15:46:49;;;;;;;10.50;8.50;;;;;;;18.49;26.43;97264.66;10510804;28;20040;-56
2022/03/02 15:52:09;;;;;;;8.93;7.68;;;;;;;18.56;26.63;97256.09;10520832;28;20509;-56
2022/03/02 15:57:28;;;;;;;10.52;7.78;;;;;;;18.62;26.78;97254.91;10517187;28;20052;-56
2022/03/02 16:02:52;;;;;;;9.77;8.07;;;;;;;18.68;27.00;97247.47;10523950;28;20048;-56
2022/03/02 16:08:15;;;;;;;11.95;7.90;;;;;;;18.72;26.65;97245.78;10521581;28;20940;-57
2022/03/02 16:13:35;;;;;;;11.00;7.50;;;;;;;18.72;27.07;97251.16;10523473;28;20583;-57
2022/03/02 16:19:14;;;;;;;10.35;6.57;;;;;;;18.76;27.47;97239.44;10522603;28;20060;-57
2022/03/02 16:24:42;;;;;;;7.63;6.85;;;;;;;18.80;27.53;97247.75;10536181;28;20044;-57
2022/03/02 16:30:02;;;;;;;8.25;7.10;;;;;;;18.86;27.92;97245.72;10530036;28;20051;-57
2022/03/02 16:35:23;;;;;;;7.57;5.90;;;;;;;18.90;28.07;97241.31;10507876;28;20416;-57
2022/03/02 16:40:44;;;;;;;8.27;6.07;;;;;;;18.95;28.31;97244.69;10517015;28;20066;-56
2022/03/02 16:46:04;;;;;;;9.15;6.22;;;;;;;18.99;28.31;97242.13;10525840;28;20074;-57
2022/03/02 16:51:23;;;;;;;6.95;5.72;;;;;;;19.04;28.46;97236.59;10519402;28;20059;-56
2022/03/02 16:56:43;;;;;;;8.10;6.03;;;;;;;19.07;28.75;97238.69;10516593;28;20556;-56
2022/03/02 17:02:03;;;;;;;11.15;6.28;;;;;;;19.10;28.86;97238.06;10515331;28;20048;-56
2022/03/02 17:07:23;;;;;;;6.85;5.47;;;;;;;19.13;29.20;97234.75;10531001;28;20035;-56
2022/03/02 17:12:44;;;;;;;6.20;5.20;;;;;;;19.19;30.04;97237.31;10513476;28;20624;-58
2022/03/02 17:18:03;;;;;;;8.00;5.55;;;;;;;19.24;30.39;97234.47;10521941;28;20061;-57
2022/03/02 17:23:23;;;;;;;8.13;4.95;;;;;;;19.29;30.93;97237.06;10519472;28;20052;-56
2022/03/02 17:28:42;;;;;;;7.78;5.00;;;;;;;19.35;31.54;97230.41;10517772;28;20036;-57
2022/03/02 17:34:02;;;;;;;8.45;4.93;;;;;;;19.42;32.16;97232.63;10521929;28;20044;-56
2022/03/02 17:39:22;;;;;;;8.48;4.90;;;;;;;19.48;32.33;97229.50;10526288;28;20396;-56
2022/03/02 17:44:41;;;;;;;8.95;4.68;;;;;;;19.53;32.73;97228.56;10523699;28;20055;-55
2022/03/02 17:50:01;;;;;;;7.38;5.00;;;;;;;19.58;33.18;97228.38;10523004;28;20476;-55
2022/03/02 17:55:20;;;;;;;6.07;4.78;;;;;;;19.64;33.48;97234.44;10522271;28;20071;-57
2022/03/02 18:00:39;;;;;;;8.63;4.15;;;;;;;19.68;33.88;97240.81;10524735;28;20461;-61
2022/03/02 18:05:59;;;;;;;7.95;4.75;;;;;;;-146.19;100.00;65364.44;10515638;28;20498;-60
2022/03/02 18:11:19;;;;;;;6.32;4.50;;;;;;;19.79;34.13;97239.44;10515637;28;20878;-58
2022/03/02 18:16:43;;;;;;;7.80;4.10;;;;;;;19.83;34.22;97237.72;10505772;28;20549;-57
2022/03/02 18:22:03;;;;;;;8.20;4.38;;;;;;;19.88;34.32;97234.88;10521917;28;20411;-59
2022/03/02 18:27:22;;;;;;;6.60;4.05;;;;;;;19.94;34.52;97220.06;10513239;28;20055;-55
2022/03/02 18:32:41;;;;;;;6.15;4.00;;;;;;;20.01;34.47;97213.41;10517920;28;20052;-55
2022/03/02 18:38:02;;;;;;;5.05;3.80;;;;;;;20.04;34.68;97207.38;10515069;28;20492;-55
2022/03/02 18:43:22;;;;;;;6.20;4.20;;;;;;;20.08;34.60;97203.72;10462419;28;20049;-56
2022/03/02 18:48:41;;;;;;;6.75;4.43;;;;;;;20.12;34.63;97196.53;10460507;28;20522;-57
2022/03/02 18:54:00;;;;;;;6.93;4.45;;;;;;;20.15;34.71;97195.13;10461983;28;20037;-56
2022/03/02 18:59:20;;;;;;;5.30;4.05;;;;;;;20.19;34.64;97192.56;10458745;28;20051;-56
2022/03/02 19:04:39;;;;;;;6.30;4.05;;;;;;;20.21;34.61;97201.97;10462109;28;20052;-56
2022/03/02 19:09:59;;;;;;;4.82;3.83;;;;;;;20.22;34.63;97198.13;10461784;28;20376;-56
2022/03/02 19:15:18;;;;;;;5.07;4.03;;;;;;;20.25;34.76;97192.09;10464559;28;20053;-57
2022/03/02 19:20:38;;;;;;;5.30;4.55;;;;;;;20.27;34.66;97202.59;10457905;28;20056;-56
2022/03/02 19:26:00;;;;;;;4.80;3.97;;;;;;;20.29;34.64;97194.97;10445307;28;20396;-58
2022/03/02 19:31:19;;;;;;;6.78;4.07;;;;;;;20.28;34.46;97191.44;10464420;28;20037;-58
2022/03/02 19:36:42;;;;;;;6.10;4.28;;;;;;;20.29;34.59;97195.75;10459051;28;20061;-57
2022/03/02 19:42:03;;;;;;;5.70;4.05;;;;;;;20.31;34.76;97190.03;10495598;28;20071;-58
2022/03/02 19:47:50;;;;;;;4.85;4.18;;;;;;;20.31;35.23;97198.16;10498247;28;20049;-58
2022/03/02 19:53:16;;;;;;;6.82;4.38;;;;;;;20.30;35.05;97191.91;10492479;28;20048;-57
2022/03/02 19:58:43;;;;;;;6.22;4.25;;;;;;;20.31;35.12;97196.22;10502512;28;20576;-54
2022/03/02 20:04:03;;;;;;;7.03;4.22;;;;;;;20.33;35.46;97198.63;10507900;28;20078;-56
2022/03/02 20:09:23;;;;;;;6.75;4.05;;;;;;;20.32;35.76;97192.41;10488408;28;20169;-56
2022/03/02 20:14:42;;;;;;;6.30;4.32;;;;;;;20.32;35.95;97195.09;10494081;28;20052;-53
2022/03/02 20:20:05;;;;;;;8.00;4.10;;;;;;;20.34;36.11;97201.00;10530294;28;20047;-56
2022/03/02 20:25:25;;;;;;;7.38;4.15;;;;;;;20.34;36.33;97209.09;10510451;28;20044;-55
2022/03/02 20:30:48;;;;;;;8.30;4.30;;;;;;;20.33;36.28;97209.44;10504842;28;20567;-55
2022/03/02 20:36:08;;;;;;;5.80;4.07;;;;;;;20.34;36.39;97213.72;10502774;28;20044;-54
2022/03/02 20:41:27;;;;;;;6.82;4.32;;;;;;;20.33;36.37;97220.28;10509503;28;20064;-55
2022/03/02 20:46:47;;;;;;;6.43;3.90;;;;;;;20.33;36.36;97220.28;10516295;28;20395;-54
2022/03/02 20:52:06;;;;;;;6.43;4.50;;;;;;;20.33;36.34;97222.97;10519677;28;20047;-56
2022/03/02 20:57:26;;;;;;;5.72;4.07;;;;;;;20.33;36.16;97215.66;10515537;28;20387;-56
2022/03/02 21:02:45;;;;;;;6.05;3.67;;;;;;;20.33;35.99;97215.66;10520982;28;20044;-56
2022/03/02 21:08:05;;;;;;;4.63;3.78;;;;;;;20.33;35.87;97207.53;10518223;28;20051;-56
2022/03/02 21:13:24;;;;;;;5.97;4.03;;;;;;;20.34;35.72;97205.63;10521822;28;20044;-56
2022/03/02 21:18:44;;;;;;;5.60;4.07;;;;;;;20.32;35.82;97197.81;10530689;28;20048;-56
2022/03/02 21:24:04;;;;;;;5.80;3.90;;;;;;;20.32;35.74;97200.50;10532575;28;20093;-57
2022/03/02 21:29:24;;;;;;;4.85;3.88;;;;;;;20.30;35.91;97199.25;10526128;28;20526;-55
2022/03/02 21:34:45;;;;;;;13.27;4.32;;;;;;;20.30;35.89;97196.53;10530820;28;20045;-55
2022/03/02 21:40:06;;;;;;;5.30;3.88;;;;;;;20.28;35.91;97196.84;10510765;28;20095;-55
2022/03/02 21:45:26;;;;;;;5.88;3.70;;;;;;;20.28;35.77;97201.47;10526653;28;20102;-56
2022/03/02 21:50:46;;;;;;;4.95;3.75;;;;;;;20.26;35.85;97182.06;10530996;28;20036;-55
2022/03/02 21:56:09;;;;;;;5.18;3.75;;;;;;;20.25;35.74;97177.78;10529621;28;20051;-54
2022/03/02 22:01:28;;;;;;;5.65;3.90;;;;;;;20.24;35.79;97185.09;10526240;28;20083;-55
2022/03/02 22:06:48;;;;;;;6.18;4.28;;;;;;;20.22;35.73;97181.91;10527714;28;20122;-55
2022/03/02 22:12:18;;;;;;;5.45;3.70;;;;;;;20.21;35.80;97171.41;10538798;28;20055;-55
2022/03/02 22:17:38;;;;;;;5.82;3.90;;;;;;;20.18;35.66;97162.03;10519144;28;20503;-53
2022/03/02 22:22:57;;;;;;;5.63;3.63;;;;;;;20.17;35.77;97155.03;10520806;28;20047;-56
2022/03/02 22:28:17;;;;;;;6.63;3.72;;;;;;;20.15;35.61;97149.16;10499481;28;20056;-55
2022/03/02 22:33:36;;;;;;;4.68;3.60;;;;;;;20.14;35.53;97147.53;10512337;28;20044;-54
2022/03/02 22:38:55;;;;;;;5.18;3.67;;;;;;;20.10;35.63;97146.59;10508483;28;20048;-55
2022/03/02 22:44:15;;;;;;;5.03;4.03;;;;;;;20.10;35.73;97138.47;10495595;28;20118;-55
2022/03/02 22:49:35;;;;;;;4.82;3.83;;;;;;;20.09;35.62;97161.22;10518529;28;20060;-56
2022/03/02 22:54:55;;;;;;;6.40;4.03;;;;;;;20.07;35.51;97152.63;10509680;28;20036;-55
2022/03/02 23:00:27;;;;;;;5.50;3.85;;;;;;;20.06;35.41;97151.06;10507351;28;20048;-55
2022/03/02 23:22:42;;;;;;;5.80;3.80;;;;;;;19.99;35.30;97140.69;10507097;28;20051;-55
2022/03/02 23:28:01;;;;;;;5.68;4.03;;;;;;;19.99;35.40;97135.28;10510875;28;20457;-55
2022/03/02 23:33:21;;;;;;;4.60;4.00;;;;;;;19.97;35.41;97136.72;10520809;28;20056;-55
2022/03/02 23:38:41;;;;;;;4.82;3.88;;;;;;;19.94;35.48;97138.97;10511285;28;20726;-55
2022/03/02 23:44:00;;;;;;;4.95;4.25;;;;;;;19.94;35.41;97138.97;10505661;28;20041;-55
2022/03/02 23:49:19;;;;;;;6.05;4.22;;;;;;;19.92;35.45;97138.47;10502573;28;20469;-55
2022/03/02 23:54:39;;;;;;;5.07;3.80;;;;;;;19.90;35.51;97138.00;10512925;28;20060;-55
2022/03/02 23:59:59;;;;;;;4.07;3.60;;;;;;;19.89;35.28;97135.63;10512651;28;20610;-55
